createdAt,value
2017-09-13T00:00:43.591Z,11.49
2017-09-13T00:01:43.593Z,11.56
2017-09-13T00:02:43.593Z,11.58
2017-09-13T00:03:43.578Z,11.58
2017-09-13T00:04:43.569Z,11.60
2017-09-13T00:05:43.522Z,11.58
2017-09-13T00:06:43.593Z,11.57
2017-09-13T00:07:43.595Z,11.56
2017-09-13T00:08:43.521Z,11.57
2017-09-13T00:09:43.702Z,11.54
2017-09-13T00:10:43.659Z,11.53
2017-09-13T00:11:43.625Z,11.50
2017-09-13T00:12:43.628Z,11.46
2017-09-13T00:13:43.686Z,11.40
2017-09-13T00:14:43.630Z,11.35
2017-09-13T00:15:43.645Z,11.29
2017-09-13T00:16:43.628Z,11.28
2017-09-13T00:17:43.603Z,11.22
2017-09-13T00:18:43.634Z,11.21
2017-09-13T00:19:43.602Z,11.18
2017-09-13T00:20:43.654Z,11.16
2017-09-13T00:21:43.654Z,11.14
2017-09-13T00:22:43.619Z,11.13
2017-09-13T00:23:43.626Z,11.11
2017-09-13T00:24:43.595Z,11.09
2017-09-13T00:25:43.622Z,11.10
2017-09-13T00:26:43.659Z,11.10
2017-09-13T00:27:43.660Z,11.10
2017-09-13T00:28:43.598Z,11.09
2017-09-13T00:29:43.600Z,11.10
2017-09-13T00:30:43.663Z,11.13
2017-09-13T00:31:43.602Z,11.13
2017-09-13T00:32:43.600Z,11.11
2017-09-13T00:33:43.602Z,11.10
2017-09-13T00:34:43.631Z,11.11
2017-09-13T00:35:43.666Z,11.13
2017-09-13T00:36:43.631Z,11.13
2017-09-13T00:37:43.605Z,11.14
2017-09-13T00:38:43.632Z,11.16
2017-09-13T00:39:43.605Z,11.16
2017-09-13T00:40:43.808Z,11.16
2017-09-13T00:41:43.716Z,11.16
2017-09-13T00:42:43.653Z,11.14
2017-09-13T00:43:43.621Z,11.14
2017-09-13T00:44:43.721Z,11.17
2017-09-13T00:45:43.677Z,11.17
2017-09-13T00:46:43.677Z,11.17
2017-09-13T00:47:43.726Z,11.18
2017-09-13T00:48:43.724Z,11.20
2017-09-13T00:49:43.676Z,11.18
2017-09-13T00:50:43.680Z,11.20
2017-09-13T00:51:43.720Z,11.17
2017-09-13T00:52:43.676Z,11.14
2017-09-13T00:53:43.728Z,11.13
2017-09-13T00:54:43.721Z,11.11
2017-09-13T00:55:43.680Z,11.07
2017-09-13T00:56:43.726Z,11.07
2017-09-13T00:57:43.730Z,11.05
2017-09-13T00:58:43.692Z,11.05
2017-09-13T00:59:43.681Z,11.05
2017-09-13T01:00:43.669Z,11.03
2017-09-13T01:01:43.648Z,11.02
2017-09-13T01:02:43.682Z,10.98
2017-09-13T01:03:43.678Z,10.95
2017-09-13T01:04:43.680Z,10.94
2017-09-13T01:05:43.645Z,10.94
2017-09-13T01:06:43.649Z,10.91
2017-09-13T01:07:43.622Z,10.93
2017-09-13T01:08:43.621Z,10.90
2017-09-13T01:09:43.679Z,10.87
2017-09-13T01:10:43.734Z,10.84
2017-09-13T01:11:43.687Z,10.84
2017-09-13T01:12:43.689Z,10.83
2017-09-13T01:13:43.714Z,10.80
2017-09-13T01:14:43.671Z,10.77
2017-09-13T01:15:43.715Z,10.74
2017-09-13T01:16:43.691Z,10.74
2017-09-13T01:17:43.737Z,10.75
2017-09-13T01:18:43.694Z,10.74
2017-09-13T01:19:43.696Z,10.72
2017-09-13T01:20:43.658Z,10.75
2017-09-13T01:21:43.633Z,10.80
2017-09-13T01:22:43.631Z,10.83
2017-09-13T01:23:43.631Z,10.83
2017-09-13T01:24:43.658Z,10.84
2017-09-13T01:25:43.633Z,10.86
2017-09-13T01:26:43.697Z,10.86
2017-09-13T01:27:43.667Z,10.86
2017-09-13T01:28:43.694Z,10.87
2017-09-13T01:29:43.663Z,10.88
2017-09-13T01:30:43.611Z,10.88
2017-09-13T01:31:43.636Z,10.90
2017-09-13T01:32:43.652Z,10.94
2017-09-13T01:33:43.663Z,10.95
2017-09-13T01:34:43.648Z,11.02
2017-09-13T01:35:43.656Z,11.03
2017-09-13T01:36:43.650Z,11.06
2017-09-13T01:37:43.637Z,11.09
2017-09-13T01:38:43.621Z,11.10
2017-09-13T01:39:43.640Z,11.13
2017-09-13T01:40:43.709Z,11.16
2017-09-13T01:41:43.670Z,11.18
2017-09-13T01:42:43.669Z,11.18
2017-09-13T01:43:43.703Z,11.17
2017-09-13T01:44:43.644Z,11.17
2017-09-13T01:45:43.670Z,11.18
2017-09-13T01:46:43.682Z,11.21
2017-09-13T01:47:43.704Z,11.22
2017-09-13T01:48:43.677Z,11.21
2017-09-13T01:49:43.676Z,11.22
2017-09-13T01:50:43.763Z,11.22
2017-09-13T01:51:43.756Z,11.24
2017-09-13T01:52:43.667Z,11.24
2017-09-13T01:53:43.760Z,11.24
2017-09-13T01:54:43.719Z,11.25
2017-09-13T01:55:43.764Z,11.28
2017-09-13T01:56:43.762Z,11.29
2017-09-13T01:57:43.762Z,11.32
2017-09-13T01:58:43.712Z,11.38
2017-09-13T01:59:43.761Z,11.40
2017-09-13T02:00:43.640Z,11.43
2017-09-13T02:01:43.723Z,11.45
2017-09-13T02:02:43.683Z,11.47
2017-09-13T02:03:43.688Z,11.50
2017-09-13T02:04:43.665Z,11.54
2017-09-13T02:05:43.653Z,11.57
2017-09-13T02:06:43.635Z,11.61
2017-09-13T02:07:43.656Z,11.65
2017-09-13T02:08:43.616Z,11.69
2017-09-13T02:09:43.734Z,11.71
2017-09-13T02:10:43.718Z,11.71
2017-09-13T02:11:43.754Z,11.73
2017-09-13T02:12:43.706Z,11.75
2017-09-13T02:13:43.773Z,11.76
2017-09-13T02:14:43.732Z,11.78
2017-09-13T02:15:43.775Z,11.78
2017-09-13T02:16:48.081Z,11.79
2017-09-13T02:17:43.683Z,11.79
2017-09-13T02:18:43.727Z,11.79
2017-09-13T02:19:43.727Z,11.82
2017-09-13T02:20:43.726Z,11.82
2017-09-13T02:21:43.729Z,11.84
2017-09-13T02:22:43.728Z,11.87
2017-09-13T02:23:43.814Z,11.91
2017-09-13T02:24:43.796Z,11.92
2017-09-13T02:25:43.729Z,11.95
2017-09-13T02:26:43.686Z,11.95
2017-09-13T02:27:43.735Z,11.97
2017-09-13T02:28:43.779Z,11.97
2017-09-13T02:29:43.738Z,11.95
2017-09-13T02:30:43.783Z,11.98
2017-09-13T02:31:43.745Z,11.99
2017-09-13T02:32:43.683Z,12.01
2017-09-13T02:33:43.746Z,12.03
2017-09-13T02:34:43.678Z,12.03
2017-09-13T02:35:43.751Z,12.05
2017-09-13T02:36:43.773Z,12.05
2017-09-13T02:37:43.708Z,12.05
2017-09-13T02:38:43.685Z,12.06
2017-09-13T02:39:43.769Z,12.10
2017-09-13T02:40:43.812Z,12.12
2017-09-13T02:41:43.789Z,12.13
2017-09-13T02:42:43.744Z,12.14
2017-09-13T02:43:43.794Z,12.16
2017-09-13T02:44:43.794Z,12.20
2017-09-13T02:45:43.748Z,12.21
2017-09-13T02:46:43.790Z,12.24
2017-09-13T02:47:43.700Z,12.26
2017-09-13T02:48:43.749Z,12.26
2017-09-13T02:49:43.800Z,12.28
2017-09-13T02:50:43.752Z,12.29
2017-09-13T02:51:43.794Z,12.29
2017-09-13T02:52:43.702Z,12.26
2017-09-13T02:53:43.747Z,12.25
2017-09-13T02:54:43.802Z,12.22
2017-09-13T02:55:43.795Z,12.21
2017-09-13T02:56:43.797Z,12.21
2017-09-13T02:57:43.800Z,12.18
2017-09-13T02:58:43.719Z,12.16
2017-09-13T02:59:43.771Z,12.18
2017-09-13T03:00:43.803Z,12.16
2017-09-13T03:01:43.796Z,12.14
2017-09-13T03:02:43.753Z,12.13
2017-09-13T03:03:43.757Z,12.12
2017-09-13T03:04:43.802Z,12.09
2017-09-13T03:05:43.798Z,12.09
2017-09-13T03:06:43.711Z,12.06
2017-09-13T03:07:43.709Z,12.06
2017-09-13T03:08:43.825Z,12.06
2017-09-13T03:09:43.760Z,12.06
2017-09-13T03:10:43.825Z,12.08
2017-09-13T03:11:43.753Z,12.06
2017-09-13T03:12:43.721Z,12.06
2017-09-13T03:13:43.698Z,12.03
2017-09-13T03:14:43.759Z,12.05
2017-09-13T03:15:43.727Z,12.05
2017-09-13T03:16:43.718Z,12.05
2017-09-13T03:17:43.703Z,12.06
2017-09-13T03:18:43.730Z,12.06
2017-09-13T03:19:43.728Z,12.06
2017-09-13T03:20:43.766Z,12.08
2017-09-13T03:21:43.769Z,12.08
2017-09-13T03:22:43.747Z,12.08
2017-09-13T03:23:43.811Z,12.06
2017-09-13T03:24:43.811Z,12.05
2017-09-13T03:25:43.817Z,12.03
2017-09-13T03:26:43.730Z,12.03
2017-09-13T03:27:43.813Z,12.02
2017-09-13T03:28:43.814Z,11.99
2017-09-13T03:29:43.847Z,11.98
2017-09-13T03:30:43.743Z,11.98
2017-09-13T03:31:43.724Z,11.97
2017-09-13T03:32:43.829Z,11.95
2017-09-13T03:33:43.801Z,11.94
2017-09-13T03:34:43.745Z,11.94
2017-09-13T03:35:43.727Z,11.97
2017-09-13T03:36:43.766Z,11.97
2017-09-13T03:37:43.824Z,11.98
2017-09-13T03:38:43.824Z,11.97
2017-09-13T03:39:43.844Z,11.97
2017-09-13T03:40:43.778Z,11.98
2017-09-13T03:41:43.791Z,11.98
2017-09-13T03:42:43.772Z,11.98
2017-09-13T03:43:43.788Z,11.94
2017-09-13T03:44:43.780Z,11.92
2017-09-13T03:45:43.819Z,11.89
2017-09-13T03:46:43.809Z,11.86
2017-09-13T03:47:43.782Z,11.82
2017-09-13T03:48:43.833Z,11.79
2017-09-13T03:49:43.784Z,11.75
2017-09-13T03:50:43.723Z,11.73
2017-09-13T03:51:43.649Z,11.71
2017-09-13T03:52:43.727Z,11.68
2017-09-13T03:53:43.656Z,11.64
2017-09-13T03:54:43.715Z,11.58
2017-09-13T03:55:43.717Z,11.51
2017-09-13T03:56:43.724Z,11.46
2017-09-13T03:57:43.695Z,11.43
2017-09-13T03:58:43.734Z,11.43
2017-09-13T03:59:43.698Z,11.40
2017-09-13T04:00:43.819Z,11.38
2017-09-13T04:01:43.784Z,11.39
2017-09-13T04:02:43.814Z,11.40
2017-09-13T04:03:43.788Z,11.40
2017-09-13T04:04:43.798Z,11.38
2017-09-13T04:05:43.815Z,11.35
2017-09-13T04:06:43.799Z,11.31
2017-09-13T04:07:43.814Z,11.29
2017-09-13T04:08:43.772Z,11.32
2017-09-13T04:09:43.792Z,11.28
2017-09-13T04:10:43.803Z,11.29
2017-09-13T04:11:43.805Z,11.27
2017-09-13T04:12:43.823Z,11.28
2017-09-13T04:13:43.802Z,11.32
2017-09-13T04:14:43.796Z,11.32
2017-09-13T04:15:43.758Z,11.31
2017-09-13T04:16:43.805Z,11.31
2017-09-13T04:17:43.839Z,11.29
2017-09-13T04:18:43.802Z,11.31
2017-09-13T04:19:43.813Z,11.32
2017-09-13T04:20:43.795Z,11.29
2017-09-13T04:21:43.797Z,11.29
2017-09-13T04:22:43.801Z,11.29
2017-09-13T04:23:43.739Z,11.27
2017-09-13T04:24:43.805Z,11.27
2017-09-13T04:25:43.801Z,11.25
2017-09-13T04:26:43.740Z,11.25
2017-09-13T04:27:43.770Z,11.25
2017-09-13T04:28:43.801Z,11.25
2017-09-13T04:29:43.743Z,11.27
2017-09-13T04:30:43.836Z,11.29
2017-09-13T04:31:43.773Z,11.32
2017-09-13T04:32:43.838Z,11.32
2017-09-13T04:33:43.817Z,11.31
2017-09-13T04:34:43.842Z,11.33
2017-09-13T04:35:43.788Z,11.33
2017-09-13T04:36:43.804Z,11.33
2017-09-13T04:37:43.755Z,11.33
2017-09-13T04:38:43.823Z,11.35
2017-09-13T04:39:43.823Z,11.32
2017-09-13T04:40:43.816Z,11.35
2017-09-13T04:41:43.811Z,11.38
2017-09-13T04:42:43.811Z,11.38
2017-09-13T04:43:43.809Z,11.36
2017-09-13T04:44:43.782Z,11.35
2017-09-13T04:45:43.817Z,11.32
2017-09-13T04:46:43.758Z,11.32
2017-09-13T04:47:43.781Z,11.35
2017-09-13T04:48:43.820Z,11.33
2017-09-13T04:49:43.762Z,11.33
2017-09-13T04:50:43.797Z,11.33
2017-09-13T04:51:43.819Z,11.35
2017-09-13T04:52:43.821Z,11.35
2017-09-13T04:53:43.769Z,11.33
2017-09-13T04:54:43.873Z,11.32
2017-09-13T04:55:43.804Z,11.33
2017-09-13T04:56:43.775Z,11.35
2017-09-13T04:57:43.820Z,11.36
2017-09-13T04:58:43.875Z,11.38
2017-09-13T04:59:43.802Z,11.38
2017-09-13T05:00:43.817Z,11.38
2017-09-13T05:01:43.765Z,11.36
2017-09-13T05:02:43.823Z,11.36
2017-09-13T05:03:43.764Z,11.38
2017-09-13T05:04:43.819Z,11.38
2017-09-13T05:05:43.795Z,11.38
2017-09-13T05:06:43.766Z,11.38
2017-09-13T05:07:43.821Z,11.43
2017-09-13T05:08:43.896Z,11.43
2017-09-13T05:09:43.873Z,11.40
2017-09-13T05:10:43.774Z,11.42
2017-09-13T05:11:43.833Z,11.45
2017-09-13T05:12:43.904Z,11.50
2017-09-13T05:13:43.869Z,11.51
2017-09-13T05:14:43.871Z,11.57
2017-09-13T05:15:43.845Z,11.54
2017-09-13T05:16:43.800Z,11.57
2017-09-13T05:17:43.865Z,11.60
2017-09-13T05:18:43.845Z,11.64
2017-09-13T05:19:43.841Z,11.64
2017-09-13T05:20:43.780Z,11.65
2017-09-13T05:21:43.840Z,11.64
2017-09-13T05:22:43.841Z,11.67
2017-09-13T05:23:43.886Z,11.68
2017-09-13T05:25:43.877Z,11.67
2017-09-13T05:26:43.790Z,11.68
2017-09-13T05:27:43.827Z,11.67
2017-09-13T05:28:43.789Z,11.67
2017-09-13T05:29:43.827Z,11.69
2017-09-13T05:30:43.905Z,11.71
2017-09-13T05:31:43.840Z,11.73
2017-09-13T05:32:43.841Z,11.71
2017-09-13T05:33:43.893Z,11.71
2017-09-13T05:34:43.889Z,11.69
2017-09-13T05:35:43.895Z,11.68
2017-09-13T05:36:43.816Z,11.71
2017-09-13T05:37:43.828Z,11.71
2017-09-13T05:38:43.981Z,11.72
2017-09-13T05:39:43.899Z,11.75
2017-09-13T05:40:43.793Z,11.73
2017-09-13T05:41:43.902Z,11.75
2017-09-13T05:42:43.845Z,11.76
2017-09-13T05:43:43.797Z,11.82
2017-09-13T05:44:43.831Z,11.84
2017-09-13T05:45:43.902Z,11.86
2017-09-13T05:46:43.859Z,11.89
2017-09-13T05:47:43.800Z,11.89
2017-09-13T05:48:43.813Z,11.89
2017-09-13T05:49:43.853Z,11.94
2017-09-13T05:50:43.800Z,11.98
2017-09-13T05:51:43.887Z,12.01
2017-09-13T05:52:43.827Z,12.01
2017-09-13T05:53:43.818Z,12.02
2017-09-13T05:54:43.893Z,12.03
2017-09-13T05:55:43.802Z,11.99
2017-09-13T05:56:43.853Z,11.97
2017-09-13T05:57:43.959Z,12.01
2017-09-13T05:58:43.818Z,12.03
2017-09-13T05:59:43.826Z,12.12
2017-09-13T06:00:43.798Z,12.13
2017-09-13T06:01:43.843Z,12.14
2017-09-13T06:02:43.890Z,12.13
2017-09-13T06:03:43.866Z,12.12
2017-09-13T06:04:43.935Z,12.09
2017-09-13T06:05:43.905Z,12.02
2017-09-13T06:06:43.916Z,11.98
2017-09-13T06:07:43.904Z,11.95
2017-09-13T06:08:43.907Z,11.95
2017-09-13T06:09:44.059Z,11.95
2017-09-13T06:10:43.827Z,11.95
2017-09-13T06:11:43.838Z,11.94
2017-09-13T06:12:43.907Z,11.95
2017-09-13T06:13:43.814Z,11.97
2017-09-13T06:14:43.916Z,11.94
2017-09-13T06:15:43.813Z,11.89
2017-09-13T06:16:43.831Z,11.99
2017-09-13T06:17:43.912Z,11.98
2017-09-13T06:18:43.851Z,11.97
2017-09-13T06:19:43.878Z,11.95
2017-09-13T06:20:43.878Z,11.95
2017-09-13T06:21:43.869Z,11.95
2017-09-13T06:22:43.874Z,11.98
2017-09-13T06:23:43.852Z,11.98
2017-09-13T06:24:43.874Z,11.95
2017-09-13T06:25:43.857Z,11.97
2017-09-13T06:26:43.877Z,11.95
2017-09-13T06:27:43.919Z,11.97
2017-09-13T06:28:43.922Z,11.97
2017-09-13T06:29:43.944Z,11.97
2017-09-13T06:30:43.931Z,11.99
2017-09-13T06:31:43.906Z,12.02
2017-09-13T06:32:43.921Z,12.05
2017-09-13T06:33:43.893Z,12.05
2017-09-13T06:34:43.893Z,12.05
2017-09-13T06:35:43.888Z,12.03
2017-09-13T06:36:43.857Z,12.06
2017-09-13T06:37:44.065Z,12.05
2017-09-13T06:38:43.830Z,12.05
2017-09-13T06:39:43.880Z,12.05
2017-09-13T06:40:43.845Z,12.03
2017-09-13T06:41:43.895Z,12.02
2017-09-13T06:42:43.868Z,12.02
2017-09-13T06:43:43.885Z,12.05
2017-09-13T06:44:43.937Z,12.05
2017-09-13T06:45:43.938Z,12.06
2017-09-13T06:46:43.981Z,12.10
2017-09-13T06:47:43.918Z,12.16
2017-09-13T06:48:43.891Z,12.16
2017-09-13T06:49:43.939Z,12.18
2017-09-13T06:50:43.915Z,12.16
2017-09-13T06:51:43.854Z,12.22
2017-09-13T06:52:43.890Z,12.22
2017-09-13T06:53:43.855Z,12.24
2017-09-13T06:54:43.823Z,12.22
2017-09-13T06:55:43.856Z,12.25
2017-09-13T06:56:43.825Z,12.28
2017-09-13T06:57:43.832Z,12.29
2017-09-13T06:58:43.829Z,12.28
2017-09-13T06:59:43.857Z,12.31
2017-09-13T07:00:43.894Z,12.33
2017-09-13T07:01:43.857Z,12.35
2017-09-13T07:02:43.850Z,12.37
2017-09-13T07:03:43.907Z,12.39
2017-09-13T07:04:43.899Z,12.44
2017-09-13T07:05:43.899Z,12.46
2017-09-13T07:06:43.898Z,12.47
2017-09-13T07:07:43.927Z,12.48
2017-09-13T07:08:43.899Z,12.50
2017-09-13T07:09:43.880Z,12.51
2017-09-13T07:10:43.953Z,12.55
2017-09-13T07:11:43.953Z,12.60
2017-09-13T07:12:43.870Z,12.64
2017-09-13T07:13:43.904Z,12.68
2017-09-13T07:14:43.881Z,12.69
2017-09-13T07:15:43.904Z,12.71
2017-09-13T07:16:43.963Z,12.72
2017-09-13T07:17:43.856Z,12.76
2017-09-13T07:18:43.902Z,12.80
2017-09-13T07:19:43.912Z,12.83
2017-09-13T07:20:43.951Z,12.84
2017-09-13T07:21:43.856Z,12.86
2017-09-13T07:22:43.889Z,12.86
2017-09-13T07:23:43.941Z,12.84
2017-09-13T07:24:43.936Z,12.89
2017-09-13T07:25:43.855Z,12.94
2017-09-13T07:26:43.852Z,12.98
2017-09-13T07:27:43.892Z,13.05
2017-09-13T07:28:43.850Z,13.17
2017-09-13T07:29:43.948Z,13.28
2017-09-13T07:30:43.918Z,13.34
2017-09-13T07:31:43.922Z,13.34
2017-09-13T07:32:43.875Z,13.29
2017-09-13T07:33:43.930Z,13.27
2017-09-13T07:34:43.882Z,13.23
2017-09-13T07:35:43.981Z,13.23
2017-09-13T07:36:43.915Z,13.20
2017-09-13T07:37:43.968Z,13.21
2017-09-13T07:38:43.924Z,13.23
2017-09-13T07:39:43.923Z,13.27
2017-09-13T07:40:43.921Z,13.25
2017-09-13T07:41:43.902Z,13.27
2017-09-13T07:42:43.862Z,13.28
2017-09-13T07:43:43.896Z,13.28
2017-09-13T07:44:43.866Z,13.32
2017-09-13T07:45:43.966Z,13.32
2017-09-13T07:46:43.870Z,13.35
2017-09-13T07:47:43.969Z,13.38
2017-09-13T07:48:43.932Z,13.39
2017-09-13T07:49:43.887Z,13.40
2017-09-13T07:50:43.977Z,13.40
2017-09-13T07:51:43.930Z,13.43
2017-09-13T07:52:43.899Z,13.45
2017-09-13T07:53:43.942Z,13.49
2017-09-13T07:54:43.969Z,13.54
2017-09-13T07:55:43.943Z,13.65
2017-09-13T07:56:43.936Z,13.75
2017-09-13T07:57:43.881Z,13.79
2017-09-13T07:58:43.942Z,13.81
2017-09-13T07:59:43.922Z,13.84
2017-09-13T08:00:43.907Z,13.88
2017-09-13T08:01:43.960Z,13.89
2017-09-13T08:02:43.883Z,13.91
2017-09-13T08:03:43.884Z,13.92
2017-09-13T08:04:43.882Z,13.93
2017-09-13T08:05:43.988Z,13.95
2017-09-13T08:06:43.987Z,13.96
2017-09-13T08:07:43.944Z,13.99
2017-09-13T08:08:43.884Z,14.00
2017-09-13T08:09:43.879Z,13.98
2017-09-13T08:10:43.978Z,13.93
2017-09-13T08:11:44.019Z,13.91
2017-09-13T08:12:43.989Z,13.92
2017-09-13T08:13:43.991Z,13.92
2017-09-13T08:14:43.990Z,13.93
2017-09-13T08:15:43.984Z,13.99
2017-09-13T08:16:43.890Z,13.96
2017-09-13T08:17:43.969Z,14.00
2017-09-13T08:18:43.940Z,14.14
2017-09-13T08:19:43.949Z,14.17
2017-09-13T08:20:43.940Z,14.31
2017-09-13T08:21:43.948Z,14.38
2017-09-13T08:22:43.956Z,14.49
2017-09-13T08:23:44.001Z,14.68
2017-09-13T08:24:43.942Z,14.87
2017-09-13T08:25:43.890Z,14.94
2017-09-13T08:26:43.968Z,15.11
2017-09-13T08:27:43.986Z,15.10
2017-09-13T08:28:43.997Z,15.19
2017-09-13T08:29:43.975Z,15.29
2017-09-13T08:30:43.953Z,15.35
2017-09-13T08:31:43.992Z,15.44
2017-09-13T08:32:43.976Z,15.40
2017-09-13T08:33:43.893Z,15.44
2017-09-13T08:34:43.929Z,15.55
2017-09-13T08:35:43.949Z,15.65
2017-09-13T08:36:43.965Z,15.70
2017-09-13T08:37:43.903Z,15.83
2017-09-13T08:38:43.965Z,15.83
2017-09-13T08:39:43.996Z,15.76
2017-09-13T08:40:43.963Z,15.76
2017-09-13T08:41:43.950Z,15.68
2017-09-13T08:42:43.982Z,15.59
2017-09-13T08:43:43.933Z,15.70
2017-09-13T08:44:43.920Z,15.79
2017-09-13T08:45:43.937Z,15.83
2017-09-13T08:46:43.918Z,15.80
2017-09-13T08:47:44.010Z,15.93
2017-09-13T08:48:43.908Z,16.03
2017-09-13T08:49:43.936Z,16.27
2017-09-13T08:50:44.007Z,16.33
2017-09-13T08:51:43.965Z,16.51
2017-09-13T08:52:43.941Z,16.59
2017-09-13T08:53:43.943Z,16.85
2017-09-13T08:54:44.013Z,16.90
2017-09-13T08:55:43.921Z,16.88
2017-09-13T08:56:44.014Z,16.97
2017-09-13T08:57:43.975Z,16.95
2017-09-13T08:58:43.909Z,16.97
2017-09-13T08:59:43.973Z,16.94
2017-09-13T09:00:43.933Z,16.84
2017-09-13T09:01:43.979Z,16.74
2017-09-13T09:02:43.925Z,16.69
2017-09-13T09:03:43.941Z,16.70
2017-09-13T09:04:43.972Z,16.69
2017-09-13T09:05:44.014Z,16.69
2017-09-13T09:06:43.950Z,16.76
2017-09-13T09:07:44.005Z,16.83
2017-09-13T09:08:43.977Z,16.95
2017-09-13T09:09:43.914Z,16.98
2017-09-13T09:10:43.931Z,16.91
2017-09-13T09:11:44.012Z,16.91
2017-09-13T09:12:43.952Z,17.05
2017-09-13T09:13:44.015Z,17.14
2017-09-13T09:14:43.972Z,17.29
2017-09-13T09:15:43.977Z,17.32
2017-09-13T09:16:43.976Z,17.31
2017-09-13T09:17:44.048Z,17.31
2017-09-13T09:19:44.030Z,17.35
2017-09-13T09:20:43.979Z,17.28
2017-09-13T09:21:44.017Z,17.24
2017-09-13T09:22:44.005Z,17.31
2017-09-13T09:23:43.975Z,17.44
2017-09-13T09:24:43.986Z,17.54
2017-09-13T09:25:43.989Z,17.68
2017-09-13T09:26:43.978Z,17.98
2017-09-13T09:27:44.006Z,18.09
2017-09-13T09:28:44.004Z,18.02
2017-09-13T09:29:44.026Z,17.83
2017-09-13T09:30:44.033Z,17.88
2017-09-13T09:31:43.918Z,17.88
2017-09-13T09:32:43.920Z,17.88
2017-09-13T09:33:43.981Z,17.84
2017-09-13T09:34:43.919Z,17.79
2017-09-13T09:35:43.984Z,17.72
2017-09-13T09:36:43.920Z,17.66
2017-09-13T09:37:43.952Z,17.83
2017-09-13T09:38:44.044Z,17.85
2017-09-13T09:39:43.987Z,17.95
2017-09-13T09:40:43.992Z,18.03
2017-09-13T09:41:43.935Z,18.12
2017-09-13T09:42:43.908Z,18.25
2017-09-13T09:43:43.997Z,18.31
2017-09-13T09:44:43.999Z,18.46
2017-09-13T09:45:43.911Z,18.69
2017-09-13T09:46:44.003Z,18.98
2017-09-13T09:47:43.942Z,19.02
2017-09-13T09:48:43.901Z,19.15
2017-09-13T09:49:43.971Z,19.10
2017-09-13T09:50:43.930Z,19.15
2017-09-13T09:51:44.042Z,19.16
2017-09-13T09:52:44.149Z,19.12
2017-09-13T09:53:43.994Z,19.03
2017-09-13T09:54:44.068Z,18.86
2017-09-13T09:55:43.949Z,18.59
2017-09-13T09:56:44.048Z,18.58
2017-09-13T09:57:43.998Z,18.59
2017-09-13T09:58:43.980Z,18.65
2017-09-13T09:59:44.054Z,18.68
2017-09-13T10:00:44.051Z,18.59
2017-09-13T10:01:44.002Z,18.51
2017-09-13T10:02:44.008Z,18.47
2017-09-13T10:03:44.056Z,18.57
2017-09-13T10:04:44.050Z,18.68
2017-09-13T10:05:44.030Z,18.87
2017-09-13T10:06:44.015Z,18.92
2017-09-13T10:07:44.006Z,18.94
2017-09-13T10:08:43.989Z,18.94
2017-09-13T10:09:44.006Z,19.13
2017-09-13T10:10:43.985Z,19.16
2017-09-13T10:11:44.002Z,19.27
2017-09-13T10:12:44.044Z,19.19
2017-09-13T10:13:43.969Z,19.24
2017-09-13T10:14:44.019Z,19.05
2017-09-13T10:15:43.953Z,18.88
2017-09-13T10:16:44.041Z,18.80
2017-09-13T10:17:43.987Z,18.83
2017-09-13T10:18:43.974Z,18.76
2017-09-13T10:19:43.985Z,18.62
2017-09-13T10:20:44.033Z,18.57
2017-09-13T10:21:44.031Z,18.50
2017-09-13T10:22:44.027Z,18.48
2017-09-13T10:23:43.962Z,18.51
2017-09-13T10:24:43.981Z,18.52
2017-09-13T10:25:44.004Z,18.57
2017-09-13T10:26:44.013Z,18.50
2017-09-13T10:27:44.023Z,18.51
2017-09-13T10:28:44.012Z,18.54
2017-09-13T10:29:44.022Z,18.62
2017-09-13T10:30:43.980Z,18.72
2017-09-13T10:31:43.979Z,19.01
2017-09-13T10:32:43.997Z,19.15
2017-09-13T10:33:44.024Z,18.98
2017-09-13T10:34:44.033Z,18.76
2017-09-13T10:35:44.059Z,18.69
2017-09-13T10:36:43.963Z,18.59
2017-09-13T10:37:43.999Z,18.55
2017-09-13T10:38:44.061Z,18.57
2017-09-13T10:39:44.064Z,18.57
2017-09-13T10:40:43.968Z,18.65
2017-09-13T10:41:44.065Z,18.75
2017-09-13T10:42:44.061Z,18.92
2017-09-13T10:43:44.020Z,18.86
2017-09-13T10:44:44.010Z,18.87
2017-09-13T10:45:43.991Z,18.79
2017-09-13T10:46:43.987Z,18.91
2017-09-13T10:47:44.037Z,18.97
2017-09-13T10:48:44.035Z,18.80
2017-09-13T10:49:44.061Z,18.70
2017-09-13T10:50:44.037Z,18.69
2017-09-13T10:51:43.979Z,18.79
2017-09-13T10:52:44.107Z,18.79
2017-09-13T10:53:44.073Z,18.80
2017-09-13T10:54:44.038Z,18.80
2017-09-13T10:55:44.041Z,18.91
2017-09-13T10:56:44.206Z,18.97
2017-09-13T10:57:44.012Z,19.01
2017-09-13T10:58:44.084Z,19.19
2017-09-13T10:59:44.049Z,19.29
2017-09-13T11:00:44.043Z,19.39
2017-09-13T11:01:44.038Z,19.31
2017-09-13T11:02:44.038Z,19.21
2017-09-13T11:03:44.038Z,19.02
2017-09-13T11:04:44.080Z,19.08
2017-09-13T11:05:44.094Z,19.02
2017-09-13T11:06:44.066Z,18.99
2017-09-13T11:07:44.050Z,19.06
2017-09-13T11:08:44.086Z,18.95
2017-09-13T11:09:44.059Z,18.97
2017-09-13T11:10:44.030Z,19.02
2017-09-13T11:11:44.006Z,19.06
2017-09-13T11:12:44.042Z,19.02
2017-09-13T11:13:44.040Z,18.99
2017-09-13T11:14:44.008Z,19.06
2017-09-13T11:15:44.048Z,19.20
2017-09-13T11:16:44.011Z,19.40
2017-09-13T11:17:43.979Z,19.43
2017-09-13T11:18:43.980Z,19.51
2017-09-13T11:19:43.982Z,19.57
2017-09-13T11:20:44.045Z,19.64
2017-09-13T11:21:43.991Z,19.70
2017-09-13T11:22:44.056Z,19.94
2017-09-13T11:23:43.996Z,19.95
2017-09-13T11:24:44.048Z,20.05
2017-09-13T11:25:43.993Z,20.03
2017-09-13T11:26:44.077Z,19.76
2017-09-13T11:27:44.026Z,19.74
2017-09-13T11:28:44.014Z,19.80
2017-09-13T11:29:44.086Z,19.76
2017-09-13T11:30:44.058Z,19.70
2017-09-13T11:31:44.038Z,19.64
2017-09-13T11:32:44.111Z,19.35
2017-09-13T11:33:44.074Z,19.31
2017-09-13T11:34:44.039Z,19.32
2017-09-13T11:35:44.059Z,19.28
2017-09-13T11:36:44.104Z,19.42
2017-09-13T11:37:44.125Z,19.60
2017-09-13T11:38:44.109Z,19.76
2017-09-13T11:39:44.076Z,20.01
2017-09-13T11:40:44.112Z,20.16
2017-09-13T11:41:44.058Z,20.17
2017-09-13T11:42:44.029Z,20.25
2017-09-13T11:43:44.066Z,20.39
2017-09-13T11:44:44.059Z,20.34
2017-09-13T11:45:44.000Z,20.28
2017-09-13T11:46:44.024Z,20.25
2017-09-13T11:47:44.034Z,20.35
2017-09-13T11:48:44.033Z,20.68
2017-09-13T11:49:44.004Z,20.41
2017-09-13T11:50:44.062Z,20.35
2017-09-13T11:51:44.071Z,20.38
2017-09-13T11:53:44.039Z,20.35
2017-09-13T11:54:44.003Z,20.36
2017-09-13T11:55:44.069Z,20.42
2017-09-13T11:56:44.064Z,20.53
2017-09-13T11:57:44.065Z,20.42
2017-09-13T11:58:44.006Z,20.60
2017-09-13T11:59:44.008Z,20.65
2017-09-13T12:00:44.074Z,20.69
2017-09-13T12:01:43.996Z,20.84
2017-09-13T12:02:43.983Z,21.05
2017-09-13T12:03:44.034Z,21.22
2017-09-13T12:04:44.037Z,21.14
2017-09-13T12:05:43.981Z,21.22
2017-09-13T12:06:43.988Z,21.24
2017-09-13T12:07:44.031Z,21.13
2017-09-13T12:08:44.017Z,20.94
2017-09-13T12:09:44.091Z,20.73
2017-09-13T12:10:44.004Z,20.65
2017-09-13T12:11:44.045Z,20.58
2017-09-13T12:12:44.016Z,20.61
2017-09-13T12:13:44.080Z,20.84
2017-09-13T12:14:44.083Z,21.06
2017-09-13T12:15:44.020Z,21.14
2017-09-13T12:16:44.077Z,21.29
2017-09-13T12:17:44.018Z,21.29
2017-09-13T12:18:44.050Z,21.06
2017-09-13T12:19:44.081Z,21.04
2017-09-13T12:20:44.051Z,20.86
2017-09-13T12:21:44.127Z,20.66
2017-09-13T12:22:44.133Z,20.56
2017-09-13T12:23:44.092Z,20.77
2017-09-13T12:24:44.033Z,20.77
2017-09-13T12:25:44.131Z,20.61
2017-09-13T12:26:44.038Z,20.75
2017-09-13T12:27:44.032Z,20.83
2017-09-13T12:28:44.141Z,20.91
2017-09-13T12:29:44.141Z,20.76
2017-09-13T12:30:44.033Z,20.64
2017-09-13T12:31:44.036Z,20.60
2017-09-13T12:32:44.097Z,20.54
2017-09-13T12:33:44.143Z,20.58
2017-09-13T12:34:44.100Z,20.57
2017-09-13T12:36:44.098Z,20.97
2017-09-13T12:37:44.089Z,20.75
2017-09-13T12:38:44.083Z,20.52
2017-09-13T12:39:44.148Z,20.16
2017-09-13T12:40:44.097Z,20.12
2017-09-13T12:41:44.096Z,20.09
2017-09-13T12:42:44.094Z,19.94
2017-09-13T12:43:44.066Z,19.83
2017-09-13T12:44:44.098Z,19.77
2017-09-13T12:45:44.092Z,19.72
2017-09-13T12:46:44.068Z,19.74
2017-09-13T12:47:44.099Z,19.76
2017-09-13T12:48:44.037Z,19.65
2017-09-13T12:49:44.067Z,19.64
2017-09-13T12:50:44.067Z,19.60
2017-09-13T12:51:44.105Z,19.68
2017-09-13T12:52:44.104Z,19.76
2017-09-13T12:53:44.150Z,19.95
2017-09-13T12:54:44.156Z,19.92
2017-09-13T12:55:44.086Z,19.91
2017-09-13T12:56:44.058Z,19.80